sensor_id;sensor_type;location;lat;lon;timestamp;pressure;altitude;pressure_sealevel;temperature;humidity
25759;BME280;13604;52.496;13.456;2024-02-14T00:00:32;101440.09;;;1.04;100.00
25759;BME280;13604;52.496;13.456;2024-02-14T00:02:58;101460.44;;;1.11;100.00
25759;BME280;13604;52.496;13.456;2024-02-14T00:05:24;101447.34;;;0.99;100.00
25759;BME280;13604;52.496;13.456;2024-02-14T00:07:49;101428.06;;;0.85;100.00
25759;BME280;13604;52.496;13.456;2024-02-14T00:10:14;101449.47;;;0.95;100.00
25759;BME280;13604;52.496;13.456;2024-02-14T00:12:40;101419.69;;;0.78;100.00
25759;BME280;13604;52.496;13.456;2024-02-14T00:15:06;101453.41;;;0.91;100.00
25759;BME280;13604;52.496;13.456;2024-02-14T00:17:32;101431.63;;;0.68;100.00
25759;BME280;13604;52.496;13.456;2024-02-14T00:19:59;101451.94;;;0.84;100.00
25759;BME280;13604;52.496;13.456;2024-02-14T00:22:24;101449.38;;;0.76;100.00
25759;BME280;13604;52.496;13.456;2024-02-14T00:24:50;101460.56;;;0.67;100.00
25759;BME280;13604;52.496;13.456;2024-02-14T00:27:15;101436.91;;;0.52;100.00
25759;BME280;13604;52.496;13.456;2024-02-14T00:29:41;101456.09;;;0.56;100.00
25759;BME280;13604;52.496;13.456;2024-02-14T00:32:06;101456.81;;;0.72;100.00
25759;BME280;13604;52.496;13.456;2024-02-14T00:34:31;101441.28;;;0.62;100.00
25759;BME280;13604;52.496;13.456;2024-02-14T00:36:57;101462.09;;;0.74;100.00
25759;BME280;13604;52.496;13.456;2024-02-14T00:39:22;101437.66;;;0.60;100.00
25759;BME280;13604;52.496;13.456;2024-02-14T00:41:47;101455.91;;;0.63;100.00
25759;BME280;13604;52.496;13.456;2024-02-14T00:44:13;101458.47;;;0.63;100.00
25759;BME280;13604;52.496;13.456;2024-02-14T00:46:42;101460.59;;;0.59;100.00
25759;BME280;13604;52.496;13.456;2024-02-14T00:49:08;101437.69;;;0.43;100.00
25759;BME280;13604;52.496;13.456;2024-02-14T00:51:33;101462.84;;;0.55;100.00
25759;BME280;13604;52.496;13.456;2024-02-14T00:54:00;101462.84;;;0.55;100.00
25759;BME280;13604;52.496;13.456;2024-02-14T00:56:25;101454.59;;;0.49;100.00
25759;BME280;13604;52.496;13.456;2024-02-14T00:58:50;101455.34;;;0.48;100.00
25759;BME280;13604;52.496;13.456;2024-02-14T01:01:15;101466.03;;;0.53;100.00
25759;BME280;13604;52.496;13.456;2024-02-14T01:03:41;101463.91;;;0.49;100.00
25759;BME280;13604;52.496;13.456;2024-02-14T01:06:06;101446.75;;;0.39;100.00
25759;BME280;13604;52.496;13.456;2024-02-14T01:08:31;101458.06;;;0.50;100.00
25759;BME280;13604;52.496;13.456;2024-02-14T01:10:58;101459.56;;;0.48;100.00
25759;BME280;13604;52.496;13.456;2024-02-14T01:13:24;101447.22;;;0.35;100.00
25759;BME280;13604;52.496;13.456;2024-02-14T01:15:49;101442.09;;;0.35;100.00
25759;BME280;13604;52.496;13.456;2024-02-14T01:18:15;101432.63;;;0.25;100.00
25759;BME280;13604;52.496;13.456;2024-02-14T01:20:40;101444.66;;;0.35;100.00
25759;BME280;13604;52.496;13.456;2024-02-14T01:23:05;101451.28;;;0.42;100.00
25759;BME280;13604;52.496;13.456;2024-02-14T01:25:31;101443.72;;;0.34;100.00
25759;BME280;13604;52.496;13.456;2024-02-14T01:27:58;101440.88;;;0.40;100.00
25759;BME280;13604;52.496;13.456;2024-02-14T01:30:24;101459.25;;;0.53;100.00
25759;BME280;13604;52.496;13.456;2024-02-14T01:32:50;101454.88;;;0.52;100.00
25759;BME280;13604;52.496;13.456;2024-02-14T01:35:15;101426.88;;;0.36;100.00
25759;BME280;13604;52.496;13.456;2024-02-14T01:37:40;101442.69;;;0.50;100.00
25759;BME280;13604;52.496;13.456;2024-02-14T01:40:06;101424.16;;;0.35;100.00
25759;BME280;13604;52.496;13.456;2024-02-14T01:42:32;101436.94;;;0.44;100.00
25759;BME280;13604;52.496;13.456;2024-02-14T01:44:58;101412.13;;;0.25;100.00
25759;BME280;13604;52.496;13.456;2024-02-14T01:47:23;101401.88;;;0.25;100.00
25759;BME280;13604;52.496;13.456;2024-02-14T01:49:48;101429.88;;;0.41;100.00
25759;BME280;13604;52.496;13.456;2024-02-14T01:52:14;101435.28;;;0.44;100.00
25759;BME280;13604;52.496;13.456;2024-02-14T01:54:40;101430.78;;;0.42;100.00
25759;BME280;13604;52.496;13.456;2024-02-14T01:57:06;101418.72;;;0.41;100.00
25759;BME280;13604;52.496;13.456;2024-02-14T01:59:33;101420.19;;;0.47;100.00
25759;BME280;13604;52.496;13.456;2024-02-14T02:02:03;101410.72;;;0.46;100.00
25759;BME280;13604;52.496;13.456;2024-02-14T02:04:28;101406.94;;;0.51;100.00
25759;BME280;13604;52.496;13.456;2024-02-14T02:06:53;101417.75;;;0.66;100.00
25759;BME280;13604;52.496;13.456;2024-02-14T02:09:22;101400.88;;;0.60;100.00
25759;BME280;13604;52.496;13.456;2024-02-14T02:11:49;101414.16;;;0.64;100.00
25759;BME280;13604;52.496;13.456;2024-02-14T02:14:15;101401.63;;;0.59;100.00
25759;BME280;13604;52.496;13.456;2024-02-14T02:16:41;101384.31;;;0.47;100.00
25759;BME280;13604;52.496;13.456;2024-02-14T02:19:06;101389.28;;;0.54;100.00
25759;BME280;13604;52.496;13.456;2024-02-14T02:21:37;101399.56;;;0.54;100.00
25759;BME280;13604;52.496;13.456;2024-02-14T02:24:02;101394.44;;;0.46;100.00
25759;BME280;13604;52.496;13.456;2024-02-14T02:26:28;101397.91;;;0.38;100.00
25759;BME280;13604;52.496;13.456;2024-02-14T02:28:53;101382.88;;;0.32;100.00
25759;BME280;13604;52.496;13.456;2024-02-14T02:31:19;101402.88;;;0.45;100.00
25759;BME280;13604;52.496;13.456;2024-02-14T02:33:45;101377.56;;;0.39;100.00
25759;BME280;13604;52.496;13.456;2024-02-14T02:36:10;101380.91;;;0.38;100.00
25759;BME280;13604;52.496;13.456;2024-02-14T02:38:36;101380.16;;;0.30;100.00
25759;BME280;13604;52.496;13.456;2024-02-14T02:41:02;101380.59;;;0.35;100.00
25759;BME280;13604;52.496;13.456;2024-02-14T02:43:28;101399.56;;;0.54;100.00
25759;BME280;13604;52.496;13.456;2024-02-14T02:45:53;101385.53;;;0.42;100.00
25759;BME280;13604;52.496;13.456;2024-02-14T02:48:19;101364.97;;;0.23;100.00
25759;BME280;13604;52.496;13.456;2024-02-14T02:50:48;101373.38;;;0.22;100.00
25759;BME280;13604;52.496;13.456;2024-02-14T02:53:14;101376.84;;;0.23;100.00
25759;BME280;13604;52.496;13.456;2024-02-14T02:55:40;101386.66;;;0.27;100.00
25759;BME280;13604;52.496;13.456;2024-02-14T02:58:05;101391.75;;;0.35;100.00
25759;BME280;13604;52.496;13.456;2024-02-14T03:00:31;101379.13;;;0.28;100.00
25759;BME280;13604;52.496;13.456;2024-02-14T03:02:57;101396.44;;;0.40;100.00
25759;BME280;13604;52.496;13.456;2024-02-14T03:05:22;101381.53;;;0.27;100.00
25759;BME280;13604;52.496;13.456;2024-02-14T03:07:48;101379.88;;;0.18;100.00
25759;BME280;13604;52.496;13.456;2024-02-14T03:10:15;101348.72;;;0.05;100.00
25759;BME280;13604;52.496;13.456;2024-02-14T03:12:45;101370.53;;;0.19;100.00
25759;BME280;13604;52.496;13.456;2024-02-14T03:15:10;101376.53;;;0.20;100.00
25759;BME280;13604;52.496;13.456;2024-02-14T03:17:36;101369.63;;;0.18;100.00
25759;BME280;13604;52.496;13.456;2024-02-14T03:20:02;101374.75;;;0.18;100.00
25759;BME280;13604;52.496;13.456;2024-02-14T03:22:32;101360.31;;;0.10;100.00
25759;BME280;13604;52.496;13.456;2024-02-14T03:24:57;101373.84;;;0.18;100.00
25759;BME280;13604;52.496;13.456;2024-02-14T03:27:23;101368.59;;;0.16;100.00
25759;BME280;13604;52.496;13.456;2024-02-14T03:29:51;101344.03;;;0.01;100.00
25759;BME280;13604;52.496;13.456;2024-02-14T03:32:16;101369.19;;;0.14;100.00
25759;BME280;13604;52.496;13.456;2024-02-14T03:34:42;101374.13;;;0.21;100.00
25759;BME280;13604;52.496;13.456;2024-02-14T03:37:07;101367.94;;;0.28;100.00
25759;BME280;13604;52.496;13.456;2024-02-14T03:39:32;101353.03;;;0.24;100.00
25759;BME280;13604;52.496;13.456;2024-02-14T03:41:58;101349.84;;;0.26;100.00
25759;BME280;13604;52.496;13.456;2024-02-14T03:44:26;101339.16;;;0.30;100.00
25759;BME280;13604;52.496;13.456;2024-02-14T03:46:51;101346.66;;;0.38;100.00
25759;BME280;13604;52.496;13.456;2024-02-14T03:49:16;101357.66;;;0.45;100.00
25759;BME280;13604;52.496;13.456;2024-02-14T03:51:42;101350.44;;;0.41;100.00
25759;BME280;13604;52.496;13.456;2024-02-14T03:54:07;101334.63;;;0.36;100.00
25759;BME280;13604;52.496;13.456;2024-02-14T03:56:32;101354.63;;;0.49;100.00
25759;BME280;13604;52.496;13.456;2024-02-14T03:59:01;101326.66;;;0.33;100.00
25759;BME280;13604;52.496;13.456;2024-02-14T04:01:26;101341.19;;;0.52;100.00
25759;BME280;13604;52.496;13.456;2024-02-14T04:03:52;101343.31;;;0.56;100.00
25759;BME280;13604;52.496;13.456;2024-02-14T04:06:17;101328.81;;;0.57;100.00
25759;BME280;13604;52.496;13.456;2024-02-14T04:08:43;101315.75;;;0.45;100.00
25759;BME280;13604;52.496;13.456;2024-02-14T04:11:08;101321.91;;;0.47;100.00
25759;BME280;13604;52.496;13.456;2024-02-14T04:13:33;101348.25;;;0.63;100.00
25759;BME280;13604;52.496;13.456;2024-02-14T04:15:58;101347.44;;;0.73;100.00
25759;BME280;13604;52.496;13.456;2024-02-14T04:18:24;101350.00;;;0.73;100.00
25759;BME280;13604;52.496;13.456;2024-02-14T04:20:49;101338.13;;;0.65;100.00
25759;BME280;13604;52.496;13.456;2024-02-14T04:23:14;101366.69;;;0.87;100.00
25759;BME280;13604;52.496;13.456;2024-02-14T04:25:40;101357.63;;;0.90;100.00
25759;BME280;13604;52.496;13.456;2024-02-14T04:28:05;101338.06;;;0.82;100.00
25759;BME280;13604;52.496;13.456;2024-02-14T04:30:31;101331.84;;;0.89;100.00
25759;BME280;13604;52.496;13.456;2024-02-14T04:32:56;101345.22;;;0.95;100.00
25759;BME280;13604;52.496;13.456;2024-02-14T04:35:21;101327.56;;;0.98;100.00
25759;BME280;13604;52.496;13.456;2024-02-14T04:37:47;101318.09;;;0.88;100.00
25759;BME280;13604;52.496;13.456;2024-02-14T04:40:14;101325.41;;;1.03;100.00
25759;BME280;13604;52.496;13.456;2024-02-14T04:42:40;101329.38;;;0.99;100.00
25759;BME280;13604;52.496;13.456;2024-02-14T04:45:06;101338.66;;;1.07;100.00
25759;BME280;13604;52.496;13.456;2024-02-14T04:47:32;101332.91;;;1.10;100.00
25759;BME280;13604;52.496;13.456;2024-02-14T04:49:58;101340.13;;;1.14;100.00
25759;BME280;13604;52.496;13.456;2024-02-14T04:52:23;101320.44;;;1.04;100.00
25759;BME280;13604;52.496;13.456;2024-02-14T04:54:48;101335.00;;;1.14;100.00
25759;BME280;13604;52.496;13.456;2024-02-14T04:57:14;101331.56;;;1.14;100.00
25759;BME280;13604;52.496;13.456;2024-02-14T04:59:40;101330.63;;;1.13;100.00
25759;BME280;13604;52.496;13.456;2024-02-14T05:02:05;101327.03;;;1.11;100.00
25759;BME280;13604;52.496;13.456;2024-02-14T05:04:31;101324.97;;;1.07;100.00
25759;BME280;13604;52.496;13.456;2024-02-14T05:06:56;101317.25;;;1.07;100.00
25759;BME280;13604;52.496;13.456;2024-02-14T05:09:22;101318.59;;;1.12;100.00
25759;BME280;13604;52.496;13.456;2024-02-14T05:11:47;101314.34;;;1.13;100.00
25759;BME280;13604;52.496;13.456;2024-02-14T05:14:12;101269.06;;;0.94;100.00
25759;BME280;13604;52.496;13.456;2024-02-14T05:16:38;101321.81;;;1.20;100.00
25759;BME280;13604;52.496;13.456;2024-02-14T05:19:03;101315.81;;;1.19;100.00
25759;BME280;13604;52.496;13.456;2024-02-14T05:21:28;101302.22;;;1.20;100.00
25759;BME280;13604;52.496;13.456;2024-02-14T05:23:54;101311.72;;;1.21;100.00
25759;BME280;13604;52.496;13.456;2024-02-14T05:26:19;101293.75;;;1.21;100.00
25759;BME280;13604;52.496;13.456;2024-02-14T05:28:44;101294.91;;;1.25;100.00
25759;BME280;13604;52.496;13.456;2024-02-14T05:31:10;101283.19;;;1.18;100.00
25759;BME280;13604;52.496;13.456;2024-02-14T05:33:35;101297.09;;;1.20;100.00
25759;BME280;13604;52.496;13.456;2024-02-14T05:36:00;101311.03;;;1.33;100.00
25759;BME280;13604;52.496;13.456;2024-02-14T05:38:26;101295.50;;;1.31;100.00
25759;BME280;13604;52.496;13.456;2024-02-14T05:40:52;101285.38;;;1.33;100.00
25759;BME280;13604;52.496;13.456;2024-02-14T05:43:17;101279.75;;;1.37;100.00
25759;BME280;13604;52.496;13.456;2024-02-14T05:45:43;101274.41;;;1.44;100.00
25759;BME280;13604;52.496;13.456;2024-02-14T05:48:08;101271.00;;;1.35;100.00
25759;BME280;13604;52.496;13.456;2024-02-14T05:50:34;101275.94;;;1.42;100.00
25759;BME280;13604;52.496;13.456;2024-02-14T05:52:59;101270.53;;;1.39;100.00
25759;BME280;13604;52.496;13.456;2024-02-14T05:55:25;101247.84;;;1.24;100.00
25759;BME280;13604;52.496;13.456;2024-02-14T05:57:51;101224.41;;;1.11;100.00
25759;BME280;13604;52.496;13.456;2024-02-14T06:00:18;101269.63;;;1.38;100.00
25759;BME280;13604;52.496;13.456;2024-02-14T06:02:44;101248.97;;;1.37;100.00
25759;BME280;13604;52.496;13.456;2024-02-14T06:05:09;101251.53;;;1.37;100.00
25759;BME280;13604;52.496;13.456;2024-02-14T06:07:35;101281.13;;;1.52;100.00
25759;BME280;13604;52.496;13.456;2024-02-14T06:10:01;101268.38;;;1.43;100.00
25759;BME280;13604;52.496;13.456;2024-02-14T06:12:26;101276.38;;;1.46;100.00
25759;BME280;13604;52.496;13.456;2024-02-14T06:14:51;101273.06;;;1.58;100.00
25759;BME280;13604;52.496;13.456;2024-02-14T06:17:16;101256.72;;;1.47;100.00
25759;BME280;13604;52.496;13.456;2024-02-14T06:19:42;101272.03;;;1.56;100.00
25759;BME280;13604;52.496;13.456;2024-02-14T06:22:07;101243.88;;;1.47;100.00
25759;BME280;13604;52.496;13.456;2024-02-14T06:24:32;101251.91;;;1.60;100.00
25759;BME280;13604;52.496;13.456;2024-02-14T06:26:58;101255.31;;;1.70;100.00
25759;BME280;13604;52.496;13.456;2024-02-14T06:29:23;101260.56;;;1.71;100.00
25759;BME280;13604;52.496;13.456;2024-02-14T06:31:48;101261.81;;;1.66;100.00
25759;BME280;13604;52.496;13.456;2024-02-14T06:34:14;101278.47;;;1.80;100.00
25759;BME280;13604;52.496;13.456;2024-02-14T06:36:39;101273.31;;;1.80;100.00
25759;BME280;13604;52.496;13.456;2024-02-14T06:39:06;101282.47;;;1.87;100.00
25759;BME280;13604;52.496;13.456;2024-02-14T06:41:32;101259.44;;;1.78;100.00
25759;BME280;13604;52.496;13.456;2024-02-14T06:43:57;101266.44;;;1.89;100.00
25759;BME280;13604;52.496;13.456;2024-02-14T06:46:23;101271.47;;;1.98;100.00
25759;BME280;13604;52.496;13.456;2024-02-14T06:48:48;101262.97;;;1.99;100.00
25759;BME280;13604;52.496;13.456;2024-02-14T06:51:13;101245.00;;;1.99;100.00
25759;BME280;13604;52.496;13.456;2024-02-14T06:53:39;101257.66;;;2.16;100.00
25759;BME280;13604;52.496;13.456;2024-02-14T06:56:04;101257.59;;;2.35;100.00
25759;BME280;13604;52.496;13.456;2024-02-14T06:58:30;101234.94;;;2.21;100.00
25759;BME280;13604;52.496;13.456;2024-02-14T07:00:55;101250.50;;;2.33;100.00
25759;BME280;13604;52.496;13.456;2024-02-14T07:03:20;101238.41;;;2.32;100.00
25759;BME280;13604;52.496;13.456;2024-02-14T07:05:46;101242.44;;;2.49;100.00
25759;BME280;13604;52.496;13.456;2024-02-14T07:08:11;101233.72;;;2.47;100.00
25759;BME280;13604;52.496;13.456;2024-02-14T07:10:36;101237.56;;;2.62;100.00
25759;BME280;13604;52.496;13.456;2024-02-14T07:13:01;101223.44;;;2.57;100.00
25759;BME280;13604;52.496;13.456;2024-02-14T07:15:28;101242.84;;;2.74;100.00
25759;BME280;13604;52.496;13.456;2024-02-14T07:17:54;101208.00;;;2.57;100.00
25759;BME280;13604;52.496;13.456;2024-02-14T07:20:20;101178.41;;;2.42;100.00
25759;BME280;13604;52.496;13.456;2024-02-14T07:22:45;101227.06;;;2.80;100.00
25759;BME280;13604;52.496;13.456;2024-02-14T07:25:12;101234.75;;;2.90;100.00
25759;BME280;13604;52.496;13.456;2024-02-14T07:27:38;101221.75;;;2.88;100.00
25759;BME280;13604;52.496;13.456;2024-02-14T07:30:03;101219.44;;;3.02;100.00
25759;BME280;13604;52.496;13.456;2024-02-14T07:32:30;101213.88;;;3.07;100.00
25759;BME280;13604;52.496;13.456;2024-02-14T07:34:55;101229.97;;;3.15;100.00
25759;BME280;13604;52.496;13.456;2024-02-14T07:37:21;101248.59;;;3.33;100.00
25759;BME280;13604;52.496;13.456;2024-02-14T07:39:46;101226.22;;;3.22;100.00
25759;BME280;13604;52.496;13.456;2024-02-14T07:42:12;101250.75;;;3.39;100.00
25759;BME280;13604;52.496;13.456;2024-02-14T07:44:38;101257.09;;;3.42;100.00
25759;BME280;13604;52.496;13.456;2024-02-14T07:47:03;101232.25;;;3.33;100.00
25759;BME280;13604;52.496;13.456;2024-02-14T07:49:29;101262.72;;;3.48;100.00
25759;BME280;13604;52.496;13.456;2024-02-14T07:51:54;101259.50;;;3.51;100.00
25759;BME280;13604;52.496;13.456;2024-02-14T07:54:19;101245.63;;;3.49;100.00
25759;BME280;13604;52.496;13.456;2024-02-14T07:56:45;101230.16;;;3.49;100.00
25759;BME280;13604;52.496;13.456;2024-02-14T07:59:10;101259.44;;;3.72;100.00
25759;BME280;13604;52.496;13.456;2024-02-14T08:01:36;101251.81;;;3.73;100.00
25759;BME280;13604;52.496;13.456;2024-02-14T08:04:02;101255.78;;;3.80;100.00
25759;BME280;13604;52.496;13.456;2024-02-14T08:06:27;101250.38;;;3.87;100.00
25759;BME280;13604;52.496;13.456;2024-02-14T08:08:52;101226.88;;;3.72;100.00
25759;BME280;13604;52.496;13.456;2024-02-14T08:11:22;101223.28;;;3.70;100.00
25759;BME280;13604;52.496;13.456;2024-02-14T08:13:47;101245.75;;;3.83;100.00
25759;BME280;13604;52.496;13.456;2024-02-14T08:16:13;101250.13;;;3.84;100.00
25759;BME280;13604;52.496;13.456;2024-02-14T08:18:38;101253.56;;;3.95;100.00
25759;BME280;13604;52.496;13.456;2024-02-14T08:21:05;101237.63;;;3.89;100.00
25759;BME280;13604;52.496;13.456;2024-02-14T08:23:31;101230.44;;;3.74;100.00
25759;BME280;13604;52.496;13.456;2024-02-14T08:25:57;101195.75;;;3.59;100.00
25759;BME280;13604;52.496;13.456;2024-02-14T08:28:22;101238.63;;;3.91;100.00
25759;BME280;13604;52.496;13.456;2024-02-14T08:30:47;101218.56;;;3.86;100.00
25759;BME280;13604;52.496;13.456;2024-02-14T08:33:13;101222.88;;;3.98;100.00
25759;BME280;13604;52.496;13.456;2024-02-14T08:35:38;101223.22;;;4.02;100.00
25759;BME280;13604;52.496;13.456;2024-02-14T08:38:03;101221.16;;;4.09;100.00
25759;BME280;13604;52.496;13.456;2024-02-14T08:40:29;101214.25;;;3.97;100.00
25759;BME280;13604;52.496;13.456;2024-02-14T08:42:54;101199.84;;;3.89;100.00
25759;BME280;13604;52.496;13.456;2024-02-14T08:45:22;101228.13;;;3.99;100.00
25759;BME280;13604;52.496;13.456;2024-02-14T08:47:48;101228.63;;;4.05;100.00
25759;BME280;13604;52.496;13.456;2024-02-14T08:50:13;101228.44;;;4.14;100.00
25759;BME280;13604;52.496;13.456;2024-02-14T08:52:39;101188.84;;;4.02;100.00
25759;BME280;13604;52.496;13.456;2024-02-14T08:55:04;101205.25;;;4.14;100.00
25759;BME280;13604;52.496;13.456;2024-02-14T08:57:31;101218.91;;;4.35;100.00
25759;BME280;13604;52.496;13.456;2024-02-14T08:59:57;101226.25;;;4.41;100.00
25759;BME280;13604;52.496;13.456;2024-02-14T09:02:22;101195.06;;;4.38;100.00
25759;BME280;13604;52.496;13.456;2024-02-14T09:04:47;101196.31;;;4.43;100.00
25759;BME280;13604;52.496;13.456;2024-02-14T09:07:13;101221.19;;;4.76;100.00
25759;BME280;13604;52.496;13.456;2024-02-14T09:09:38;101211.06;;;4.56;100.00
25759;BME280;13604;52.496;13.456;2024-02-14T09:12:04;101227.88;;;4.51;100.00
25759;BME280;13604;52.496;13.456;2024-02-14T09:14:29;101198.84;;;4.31;100.00
25759;BME280;13604;52.496;13.456;2024-02-14T09:16:55;101201.78;;;4.36;100.00
25759;BME280;13604;52.496;13.456;2024-02-14T09:19:21;101209.72;;;4.39;100.00
25759;BME280;13604;52.496;13.456;2024-02-14T09:21:46;101215.25;;;4.43;100.00
25759;BME280;13604;52.496;13.456;2024-02-14T09:24:12;101211.53;;;4.40;100.00
25759;BME280;13604;52.496;13.456;2024-02-14T09:26:38;101220.13;;;4.51;100.00
25759;BME280;13604;52.496;13.456;2024-02-14T09:29:03;101235.19;;;4.68;100.00
25759;BME280;13604;52.496;13.456;2024-02-14T09:31:28;101213.16;;;4.84;100.00
25759;BME280;13604;52.496;13.456;2024-02-14T09:33:54;101214.69;;;4.82;100.00
25759;BME280;13604;52.496;13.456;2024-02-14T09:36:22;101194.16;;;4.83;100.00
25759;BME280;13604;52.496;13.456;2024-02-14T09:38:47;101219.34;;;5.09;100.00
25759;BME280;13604;52.496;13.456;2024-02-14T09:41:22;101201.28;;;4.97;100.00
25759;BME280;13604;52.496;13.456;2024-02-14T09:43:48;101221.63;;;5.16;100.00
25759;BME280;13604;52.496;13.456;2024-02-14T09:46:13;101216.31;;;5.03;100.00
25759;BME280;13604;52.496;13.456;2024-02-14T09:48:42;101229.25;;;5.15;100.00
25759;BME280;13604;52.496;13.456;2024-02-14T09:51:08;101203.63;;;5.06;100.00
25759;BME280;13604;52.496;13.456;2024-02-14T09:53:34;101218.94;;;5.15;100.00
25759;BME280;13604;52.496;13.456;2024-02-14T09:56:01;101220.94;;;5.31;100.00
25759;BME280;13604;52.496;13.456;2024-02-14T09:58:27;101218.72;;;5.24;100.00
25759;BME280;13604;52.496;13.456;2024-02-14T10:00:54;101213.00;;;5.40;100.00
25759;BME280;13604;52.496;13.456;2024-02-14T10:03:19;101227.25;;;5.34;100.00
25759;BME280;13604;52.496;13.456;2024-02-14T10:05:44;101223.31;;;5.28;100.00
25759;BME280;13604;52.496;13.456;2024-02-14T10:08:11;101228.38;;;5.26;100.00
25759;BME280;13604;52.496;13.456;2024-02-14T10:10:37;101216.34;;;5.15;100.00
25759;BME280;13604;52.496;13.456;2024-02-14T10:13:04;101222.28;;;5.14;100.00
25759;BME280;13604;52.496;13.456;2024-02-14T10:15:30;101214.06;;;5.08;100.00
25759;BME280;13604;52.496;13.456;2024-02-14T10:17:57;101210.59;;;5.07;100.00
25759;BME280;13604;52.496;13.456;2024-02-14T10:20:23;101203.22;;;5.12;100.00
25759;BME280;13604;52.496;13.456;2024-02-14T10:22:48;101208.38;;;5.12;100.00
25759;BME280;13604;52.496;13.456;2024-02-14T10:25:13;101214.44;;;5.24;100.00
25759;BME280;13604;52.496;13.456;2024-02-14T10:27:40;101211.41;;;5.42;100.00
25759;BME280;13604;52.496;13.456;2024-02-14T10:30:06;101208.16;;;5.56;100.00
25759;BME280;13604;52.496;13.456;2024-02-14T10:32:39;101208.16;;;5.68;100.00
25759;BME280;13604;52.496;13.456;2024-02-14T10:35:06;101207.34;;;5.69;100.00
25759;BME280;13604;52.496;13.456;2024-02-14T10:37:37;101204.22;;;5.73;100.00
25759;BME280;13604;52.496;13.456;2024-02-14T10:40:03;101200.50;;;5.69;100.00
25759;BME280;13604;52.496;13.456;2024-02-14T10:42:33;101204.56;;;5.66;100.00
25759;BME280;13604;52.496;13.456;2024-02-14T10:45:02;101198.94;;;5.71;100.00
25759;BME280;13604;52.496;13.456;2024-02-14T10:47:32;101194.44;;;5.57;100.00
25759;BME280;13604;52.496;13.456;2024-02-14T10:50:05;101196.69;;;5.52;100.00
25759;BME280;13604;52.496;13.456;2024-02-14T10:52:32;101199.84;;;5.60;100.00
25759;BME280;13604;52.496;13.456;2024-02-14T10:54:59;101196.47;;;5.61;100.00
25759;BME280;13604;52.496;13.456;2024-02-14T10:57:27;101187.91;;;5.74;100.00
25759;BME280;13604;52.496;13.456;2024-02-14T10:59:54;101196.22;;;5.70;100.00
25759;BME280;13604;52.496;13.456;2024-02-14T11:02:20;101189.38;;;5.82;100.00
25759;BME280;13604;52.496;13.456;2024-02-14T11:04:48;101189.06;;;6.15;100.00
25759;BME280;13604;52.496;13.456;2024-02-14T11:07:13;101177.63;;;6.36;100.00
25759;BME280;13604;52.496;13.456;2024-02-14T11:12:07;100312.59;;;1.75;nan
25759;BME280;13604;52.496;13.456;2024-02-14T11:14:36;101187.66;;;7.09;nan
25759;BME280;13604;52.496;13.456;2024-02-14T11:17:04;101181.13;;;7.14;nan
25759;BME280;13604;52.496;13.456;2024-02-14T11:19:33;101166.38;;;7.13;nan
25759;BME280;13604;52.496;13.456;2024-02-14T11:22:12;101178.91;;;7.20;nan
25759;BME280;13604;52.496;13.456;2024-02-14T11:24:38;101175.03;;;7.13;nan
25759;BME280;13604;52.496;13.456;2024-02-14T11:27:09;101180.19;;;7.13;nan
25759;BME280;13604;52.496;13.456;2024-02-14T11:29:35;101172.53;;;7.15;nan
25759;BME280;13604;52.496;13.456;2024-02-14T11:32:01;101161.19;;;6.99;nan
25759;BME280;13604;52.496;13.456;2024-02-14T11:34:27;101157.03;;;6.63;nan
25759;BME280;13604;52.496;13.456;2024-02-14T11:36:53;101177.53;;;6.60;nan
25759;BME280;13604;52.496;13.456;2024-02-14T11:39:18;101163.22;;;6.40;nan
25759;BME280;13604;52.496;13.456;2024-02-14T11:41:45;101166.63;;;6.52;nan
25759;BME280;13604;52.496;13.456;2024-02-14T11:44:10;101178.38;;;6.47;nan
25759;BME280;13604;52.496;13.456;2024-02-14T11:46:37;101180.97;;;6.47;nan
25759;BME280;13604;52.496;13.456;2024-02-14T11:49:03;101177.69;;;6.50;nan
25759;BME280;13604;52.496;13.456;2024-02-14T11:51:30;101184.97;;;6.55;nan
25759;BME280;13604;52.496;13.456;2024-02-14T11:54:00;101156.94;;;6.36;nan
25759;BME280;13604;52.496;13.456;2024-02-14T11:56:35;101155.94;;;6.34;nan
25759;BME280;13604;52.496;13.456;2024-02-14T11:59:02;101178.66;;;6.38;nan
25759;BME280;13604;52.496;13.456;2024-02-14T12:02:35;101171.00;;;6.40;100.00
25759;BME280;13604;52.496;13.456;2024-02-14T12:05:01;101158.50;;;6.34;100.00
25759;BME280;13604;52.496;13.456;2024-02-14T12:07:30;101178.38;;;6.47;100.00
25759;BME280;13604;52.496;13.456;2024-02-14T12:09:55;101175.94;;;6.37;100.00
25759;BME280;13604;52.496;13.456;2024-02-14T12:12:20;101179.84;;;6.43;100.00
25759;BME280;13604;52.496;13.456;2024-02-14T12:14:51;101180.28;;;6.50;100.00
25759;BME280;13604;52.496;13.456;2024-02-14T12:17:17;101155.66;;;6.43;100.00
25759;BME280;13604;52.496;13.456;2024-02-14T12:20:08;101156.00;;;6.22;100.00
25759;BME280;13604;52.496;13.456;2024-02-14T12:22:40;101170.28;;;6.42;100.00
25759;BME280;13604;52.496;13.456;2024-02-14T12:25:08;101158.34;;;6.44;100.00
25759;BME280;13604;52.496;13.456;2024-02-14T12:27:36;101162.19;;;6.50;100.00
25759;BME280;13604;52.496;13.456;2024-02-14T12:30:08;101135.34;;;6.36;100.00
25759;BME280;13604;52.496;13.456;2024-02-14T12:32:35;101109.94;;;6.17;100.00
25759;BME280;13604;52.496;13.456;2024-02-14T12:35:00;101171.03;;;6.53;100.00
25759;BME280;13604;52.496;13.456;2024-02-14T12:37:25;101170.72;;;6.49;100.00
25759;BME280;13604;52.496;13.456;2024-02-14T12:39:51;101172.34;;;6.60;100.00